sensor_id;sensor_type;location;lat;lon;timestamp;pressure;altitude;pressure_sealevel;temperature;humidity
72370;BME280;60343;-32.030;115.880;2024-01-06T00:00:38;101737.81;;;26.38;44.43
72370;BME280;60343;-32.030;115.880;2024-01-06T00:03:13;101732.97;;;26.67;44.14
72370;BME280;60343;-32.030;115.880;2024-01-06T00:05:48;101736.03;;;26.92;43.47
72370;BME280;60343;-32.030;115.880;2024-01-06T00:08:24;101733.50;;;27.12;43.01
72370;BME280;60343;-32.030;115.880;2024-01-06T00:10:59;101734.47;;;27.28;42.39
72370;BME280;60343;-32.030;115.880;2024-01-06T00:13:41;101735.19;;;27.45;42.25
72370;BME280;60343;-32.030;115.880;2024-01-06T00:16:18;101738.25;;;27.49;42.59
72370;BME280;60343;-32.030;115.880;2024-01-06T00:18:54;101732.38;;;27.72;41.67
72370;BME280;60343;-32.030;115.880;2024-01-06T00:21:30;101734.03;;;27.68;42.14
72370;BME280;60343;-32.030;115.880;2024-01-06T00:24:05;101736.22;;;27.66;41.70
72370;BME280;60343;-32.030;115.880;2024-01-06T00:26:41;101731.34;;;27.78;41.50
72370;BME280;60343;-32.030;115.880;2024-01-06T00:29:22;101731.34;;;27.78;41.63
72370;BME280;60343;-32.030;115.880;2024-01-06T00:31:57;101732.09;;;28.05;40.95
72370;BME280;60343;-32.030;115.880;2024-01-06T00:34:32;101730.84;;;28.28;40.03
72370;BME280;60343;-32.030;115.880;2024-01-06T00:37:07;101734.53;;;28.49;40.83
72370;BME280;60343;-32.030;115.880;2024-01-06T00:39:42;101734.84;;;28.63;39.61
72370;BME280;60343;-32.030;115.880;2024-01-06T03:18:17;101567.22;;;33.61;28.75
72370;BME280;60343;-32.030;115.880;2024-01-06T03:20:53;101562.13;;;33.55;29.04
72370;BME280;60343;-32.030;115.880;2024-01-06T03:23:29;101552.22;;;33.49;29.79
72370;BME280;60343;-32.030;115.880;2024-01-06T03:26:07;101553.56;;;33.38;29.21
72370;BME280;60343;-32.030;115.880;2024-01-06T03:28:42;101554.56;;;33.55;29.18
72370;BME280;60343;-32.030;115.880;2024-01-06T03:31:17;101548.44;;;33.72;29.41
72370;BME280;60343;-32.030;115.880;2024-01-06T03:33:58;101543.38;;;33.88;28.69
72370;BME280;60343;-32.030;115.880;2024-01-06T03:36:34;101541.09;;;34.03;28.82
72370;BME280;60343;-32.030;115.880;2024-01-06T03:39:09;101541.59;;;34.19;28.55
72370;BME280;60343;-32.030;115.880;2024-01-06T03:41:44;101534.34;;;34.32;28.95
72370;BME280;60343;-32.030;115.880;2024-01-06T03:44:19;101532.31;;;34.24;28.47
72370;BME280;60343;-32.030;115.880;2024-01-06T03:46:58;101529.16;;;34.03;28.46
72370;BME280;60343;-32.030;115.880;2024-01-06T03:49:39;101527.78;;;34.14;29.18
72370;BME280;60343;-32.030;115.880;2024-01-06T03:52:14;101526.72;;;34.37;29.14
72370;BME280;60343;-32.030;115.880;2024-01-06T03:54:50;101521.72;;;34.48;28.83
72370;BME280;60343;-32.030;115.880;2024-01-06T03:57:25;101513.50;;;34.43;29.42
72370;BME280;60343;-32.030;115.880;2024-01-06T04:00:00;101511.25;;;34.45;29.69
72370;BME280;60343;-32.030;115.880;2024-01-06T04:02:35;101510.69;;;34.21;29.46
72370;BME280;60343;-32.030;115.880;2024-01-06T04:05:17;101495.41;;;34.32;28.64
72370;BME280;60343;-32.030;115.880;2024-01-06T04:07:52;101498.13;;;34.23;28.85
72370;BME280;60343;-32.030;115.880;2024-01-06T04:10:31;101482.84;;;34.34;29.08
72370;BME280;60343;-32.030;115.880;2024-01-06T04:13:06;101487.31;;;34.66;29.32
72370;BME280;60343;-32.030;115.880;2024-01-06T04:15:42;101478.13;;;34.79;27.33
72370;BME280;60343;-32.030;115.880;2024-01-06T04:18:17;101475.47;;;34.74;27.31
72370;BME280;60343;-32.030;115.880;2024-01-06T04:20:58;101480.06;;;34.57;28.02
72370;BME280;60343;-32.030;115.880;2024-01-06T04:23:34;101468.06;;;34.47;27.80
72370;BME280;60343;-32.030;115.880;2024-01-06T04:26:09;101470.44;;;34.63;29.62
72370;BME280;60343;-32.030;115.880;2024-01-06T04:28:44;101469.63;;;34.62;28.19
72370;BME280;60343;-32.030;115.880;2024-01-06T04:31:20;101463.84;;;34.81;29.29
72370;BME280;60343;-32.030;115.880;2024-01-06T04:33:55;101454.66;;;35.03;28.59
72370;BME280;60343;-32.030;115.880;2024-01-06T04:36:36;101455.09;;;35.27;29.01
72370;BME280;60343;-32.030;115.880;2024-01-06T04:39:12;101459.22;;;34.99;27.87
72370;BME280;60343;-32.030;115.880;2024-01-06T04:41:47;101436.78;;;34.95;27.56
72370;BME280;60343;-32.030;115.880;2024-01-06T04:44:22;101433.84;;;35.00;26.87
72370;BME280;60343;-32.030;115.880;2024-01-06T04:46:57;101427.59;;;34.64;27.16
72370;BME280;60343;-32.030;115.880;2024-01-06T04:49:32;101433.56;;;34.49;27.77
72370;BME280;60343;-32.030;115.880;2024-01-06T04:52:14;101423.16;;;34.63;27.80
72370;BME280;60343;-32.030;115.880;2024-01-06T04:54:49;101421.34;;;34.80;28.03
72370;BME280;60343;-32.030;115.880;2024-01-06T04:57:24;101419.03;;;35.22;27.57
72370;BME280;60343;-32.030;115.880;2024-01-06T05:00:00;101415.16;;;35.40;26.72
72370;BME280;60343;-32.030;115.880;2024-01-06T05:02:35;101406.19;;;35.60;27.53
72370;BME280;60343;-32.030;115.880;2024-01-06T05:05:10;101400.28;;;35.62;28.34
72370;BME280;60343;-32.030;115.880;2024-01-06T05:07:51;101404.75;;;35.89;28.99
72370;BME280;60343;-32.030;115.880;2024-01-06T05:10:27;101396.41;;;36.15;25.67
72370;BME280;60343;-32.030;115.880;2024-01-06T05:13:02;101392.06;;;36.43;26.23
72370;BME280;60343;-32.030;115.880;2024-01-06T05:15:37;101379.94;;;36.39;25.16
72370;BME280;60343;-32.030;115.880;2024-01-06T05:18:13;101377.66;;;36.41;24.66
72370;BME280;60343;-32.030;115.880;2024-01-06T05:20:48;101367.19;;;36.21;25.19
72370;BME280;60343;-32.030;115.880;2024-01-06T05:23:30;101361.75;;;36.24;24.86
72370;BME280;60343;-32.030;115.880;2024-01-06T05:26:06;101358.13;;;36.32;24.68
72370;BME280;60343;-32.030;115.880;2024-01-06T05:28:41;101369.69;;;36.60;25.34
72370;BME280;60343;-32.030;115.880;2024-01-06T05:31:16;101362.59;;;36.80;23.88
72370;BME280;60343;-32.030;115.880;2024-01-06T05:33:52;101356.50;;;36.86;24.34
72370;BME280;60343;-32.030;115.880;2024-01-06T05:36:27;101357.34;;;37.08;23.45
72370;BME280;60343;-32.030;115.880;2024-01-06T05:39:08;101347.56;;;37.22;23.95
72370;BME280;60343;-32.030;115.880;2024-01-06T05:41:44;101348.50;;;37.06;22.92
72370;BME280;60343;-32.030;115.880;2024-01-06T05:44:19;101344.72;;;37.10;24.07
72370;BME280;60343;-32.030;115.880;2024-01-06T05:46:55;101336.00;;;37.12;22.93
72370;BME280;60343;-32.030;115.880;2024-01-06T05:49:30;101333.22;;;37.12;23.33
72370;BME280;60343;-32.030;115.880;2024-01-06T05:52:06;101334.03;;;37.04;25.65
72370;BME280;60343;-32.030;115.880;2024-01-06T05:54:48;101333.41;;;36.69;28.38
72370;BME280;60343;-32.030;115.880;2024-01-06T05:57:23;101340.69;;;36.61;28.70
72370;BME280;60343;-32.030;115.880;2024-01-06T05:59:58;101331.94;;;35.82;29.07
72370;BME280;60343;-32.030;115.880;2024-01-06T06:02:33;101331.72;;;36.30;29.32
72370;BME280;60343;-32.030;115.880;2024-01-06T06:05:09;101322.19;;;36.39;29.32
72370;BME280;60343;-32.030;115.880;2024-01-06T06:07:44;101323.22;;;36.26;28.92
72370;BME280;60343;-32.030;115.880;2024-01-06T06:10:25;101314.56;;;35.93;30.03
72370;BME280;60343;-32.030;115.880;2024-01-06T06:13:09;101316.03;;;35.99;29.91
72370;BME280;60343;-32.030;115.880;2024-01-06T06:15:47;101310.44;;;36.25;29.95
72370;BME280;60343;-32.030;115.880;2024-01-06T06:18:22;101315.81;;;36.13;29.22
72370;BME280;60343;-32.030;115.880;2024-01-06T06:20:58;101315.69;;;36.18;28.53
72370;BME280;60343;-32.030;115.880;2024-01-06T06:23:34;101317.88;;;36.42;28.61
72370;BME280;60343;-32.030;115.880;2024-01-06T06:26:15;101307.03;;;36.49;28.16
72370;BME280;60343;-32.030;115.880;2024-01-06T06:28:50;101304.97;;;36.75;29.01
72370;BME280;60343;-32.030;115.880;2024-01-06T06:31:25;101303.66;;;36.81;28.87
72370;BME280;60343;-32.030;115.880;2024-01-06T06:34:01;101303.91;;;36.88;28.29
72370;BME280;60343;-32.030;115.880;2024-01-06T06:36:37;101305.41;;;36.86;27.90
72370;BME280;60343;-32.030;115.880;2024-01-06T06:39:12;101301.69;;;36.73;28.43
72370;BME280;60343;-32.030;115.880;2024-01-06T06:41:53;101301.25;;;36.63;28.52
72370;BME280;60343;-32.030;115.880;2024-01-06T06:44:29;101291.91;;;36.59;28.22
72370;BME280;60343;-32.030;115.880;2024-01-06T06:47:04;101292.13;;;36.83;28.59
72370;BME280;60343;-32.030;115.880;2024-01-06T06:49:40;101284.81;;;36.70;28.85
72370;BME280;60343;-32.030;115.880;2024-01-06T06:52:15;101283.25;;;36.51;28.11
72370;BME280;60343;-32.030;115.880;2024-01-06T06:54:50;101289.94;;;36.59;28.15
72370;BME280;60343;-32.030;115.880;2024-01-06T06:57:31;101286.09;;;36.34;29.10
72370;BME280;60343;-32.030;115.880;2024-01-06T07:00:08;101293.22;;;35.97;30.16
72370;BME280;60343;-32.030;115.880;2024-01-06T07:02:44;101286.09;;;35.70;29.76
72370;BME280;60343;-32.030;115.880;2024-01-06T07:05:19;101288.31;;;35.17;31.21
72370;BME280;60343;-32.030;115.880;2024-01-06T07:07:54;101282.44;;;35.18;31.71
72370;BME280;60343;-32.030;115.880;2024-01-06T07:10:29;101280.25;;;34.98;32.21
72370;BME280;60343;-32.030;115.880;2024-01-06T07:13:11;101284.19;;;34.88;32.13
72370;BME280;60343;-32.030;115.880;2024-01-06T07:15:46;101280.50;;;34.31;31.91
72370;BME280;60343;-32.030;115.880;2024-01-06T07:18:22;101273.66;;;33.62;32.72
72370;BME280;60343;-32.030;115.880;2024-01-06T07:20:57;101267.75;;;33.05;33.75
72370;BME280;60343;-32.030;115.880;2024-01-06T07:23:34;101267.53;;;33.15;35.19
72370;BME280;60343;-32.030;115.880;2024-01-06T07:26:10;101260.34;;;33.14;35.26
72370;BME280;60343;-32.030;115.880;2024-01-06T07:28:51;101264.16;;;33.18;35.56
72370;BME280;60343;-32.030;115.880;2024-01-06T07:31:26;101262.66;;;32.99;36.58
72370;BME280;60343;-32.030;115.880;2024-01-06T07:34:02;101261.34;;;32.83;37.71
72370;BME280;60343;-32.030;115.880;2024-01-06T07:36:37;101263.41;;;32.77;37.39
72370;BME280;60343;-32.030;115.880;2024-01-06T07:39:13;101265.50;;;32.25;37.29
72370;BME280;60343;-32.030;115.880;2024-01-06T07:41:48;101268.34;;;31.74;38.76
72370;BME280;60343;-32.030;115.880;2024-01-06T07:44:29;101269.34;;;31.27;40.02
72370;BME280;60343;-32.030;115.880;2024-01-06T07:47:04;101275.69;;;31.09;40.36
72370;BME280;60343;-32.030;115.880;2024-01-06T07:49:39;101270.72;;;30.63;41.47
72370;BME280;60343;-32.030;115.880;2024-01-06T07:52:15;101282.00;;;30.14;41.26
72370;BME280;60343;-32.030;115.880;2024-01-06T07:54:50;101279.28;;;29.80;41.96
72370;BME280;60343;-32.030;115.880;2024-01-06T07:57:25;101276.84;;;29.74;42.95
72370;BME280;60343;-32.030;115.880;2024-01-06T08:00:07;101279.41;;;29.65;41.64
72370;BME280;60343;-32.030;115.880;2024-01-06T08:02:43;101275.50;;;29.71;42.73
72370;BME280;60343;-32.030;115.880;2024-01-06T08:05:18;101278.69;;;29.83;41.20
72370;BME280;60343;-32.030;115.880;2024-01-06T08:07:53;101274.25;;;29.88;40.32
72370;BME280;60343;-32.030;115.880;2024-01-06T08:10:28;101270.72;;;29.82;39.76
72370;BME280;60343;-32.030;115.880;2024-01-06T08:13:04;101278.81;;;29.68;39.41
72370;BME280;60343;-32.030;115.880;2024-01-06T08:15:45;101283.16;;;29.40;40.08
72370;BME280;60343;-32.030;115.880;2024-01-06T08:18:20;101283.47;;;29.29;39.90
72370;BME280;60343;-32.030;115.880;2024-01-06T08:20:56;101283.00;;;29.22;39.43
72370;BME280;60343;-32.030;115.880;2024-01-06T08:23:31;101279.09;;;29.23;38.97
72370;BME280;60343;-32.030;115.880;2024-01-06T08:26:06;101287.44;;;29.13;39.47
72370;BME280;60343;-32.030;115.880;2024-01-06T08:28:42;101286.13;;;29.00;39.80
72370;BME280;60343;-32.030;115.880;2024-01-06T08:31:23;101290.25;;;28.97;39.88
72370;BME280;60343;-32.030;115.880;2024-01-06T08:33:58;101285.31;;;28.94;40.26
72370;BME280;60343;-32.030;115.880;2024-01-06T08:36:34;101289.22;;;28.88;39.91
72370;BME280;60343;-32.030;115.880;2024-01-06T08:39:09;101293.00;;;29.02;40.61
72370;BME280;60343;-32.030;115.880;2024-01-06T08:41:44;101288.53;;;29.17;39.79
72370;BME280;60343;-32.030;115.880;2024-01-06T08:44:20;101292.88;;;29.23;39.19
72370;BME280;60343;-32.030;115.880;2024-01-06T08:47:01;101292.16;;;29.12;40.24
72370;BME280;60343;-32.030;115.880;2024-01-06T08:49:36;101286.16;;;28.95;40.97
72370;BME280;60343;-32.030;115.880;2024-01-06T08:52:11;101293.84;;;28.98;41.36
72370;BME280;60343;-32.030;115.880;2024-01-06T08:54:46;101294.41;;;28.95;40.83
72370;BME280;60343;-32.030;115.880;2024-01-06T08:57:22;101294.19;;;28.86;40.60
72370;BME280;60343;-32.030;115.880;2024-01-06T08:59:57;101292.25;;;28.92;41.18
72370;BME280;60343;-32.030;115.880;2024-01-06T09:02:38;101294.41;;;29.00;41.20
72370;BME280;60343;-32.030;115.880;2024-01-06T09:05:13;101298.25;;;28.99;41.41
72370;BME280;60343;-32.030;115.880;2024-01-06T09:07:48;101301.84;;;28.99;41.31
72370;BME280;60343;-32.030;115.880;2024-01-06T09:10:24;101301.84;;;28.99;41.73
72370;BME280;60343;-32.030;115.880;2024-01-06T09:12:59;101301.25;;;29.08;41.14
72370;BME280;60343;-32.030;115.880;2024-01-06T09:15:29;101306.00;;;28.97;41.06
72370;BME280;60343;-32.030;115.880;2024-01-06T09:18:11;101298.00;;;28.95;41.10
72370;BME280;60343;-32.030;115.880;2024-01-06T09:20:46;101292.25;;;28.92;41.13
72370;BME280;60343;-32.030;115.880;2024-01-06T09:23:22;101293.03;;;28.92;40.98
72370;BME280;60343;-32.030;115.880;2024-01-06T09:25:58;101294.19;;;28.86;40.19
72370;BME280;60343;-32.030;115.880;2024-01-06T09:28:34;101302.75;;;28.85;40.57
72370;BME280;60343;-32.030;115.880;2024-01-06T09:31:09;101298.38;;;28.74;40.69
72370;BME280;60343;-32.030;115.880;2024-01-06T09:33:50;101297.00;;;28.66;40.54
72370;BME280;60343;-32.030;115.880;2024-01-06T09:36:25;101307.47;;;28.59;40.47
72370;BME280;60343;-32.030;115.880;2024-01-06T09:39:00;101303.91;;;28.53;40.84
72370;BME280;60343;-32.030;115.880;2024-01-06T09:41:36;101306.97;;;28.47;41.98
72370;BME280;60343;-32.030;115.880;2024-01-06T09:44:11;101305.31;;;28.51;42.24
72370;BME280;60343;-32.030;115.880;2024-01-06T09:46:46;101307.75;;;28.57;41.88
72370;BME280;60343;-32.030;115.880;2024-01-06T09:49:29;101316.34;;;28.51;42.16
72370;BME280;60343;-32.030;115.880;2024-01-06T09:52:10;101317.94;;;28.62;42.37
72370;BME280;60343;-32.030;115.880;2024-01-06T09:54:51;101312.16;;;28.58;42.51
72370;BME280;60343;-32.030;115.880;2024-01-06T09:57:28;101313.84;;;28.54;43.39
72370;BME280;60343;-32.030;115.880;2024-01-06T10:00:03;101313.00;;;28.49;41.50
72370;BME280;60343;-32.030;115.880;2024-01-06T10:02:39;101316.63;;;28.29;41.45
72370;BME280;60343;-32.030;115.880;2024-01-06T10:05:20;101308.13;;;28.21;42.10
72370;BME280;60343;-32.030;115.880;2024-01-06T10:07:56;101316.38;;;28.15;42.24
72370;BME280;60343;-32.030;115.880;2024-01-06T10:10:32;101321.88;;;28.00;42.61
72370;BME280;60343;-32.030;115.880;2024-01-06T10:13:08;101325.16;;;27.97;43.26
72370;BME280;60343;-32.030;115.880;2024-01-06T10:15:43;101315.28;;;27.81;43.54
72370;BME280;60343;-32.030;115.880;2024-01-06T10:18:19;101320.78;;;27.81;43.45
72370;BME280;60343;-32.030;115.880;2024-01-06T10:21:00;101324.88;;;27.73;43.40
72370;BME280;60343;-32.030;115.880;2024-01-06T10:23:37;101320.19;;;27.59;43.64
72370;BME280;60343;-32.030;115.880;2024-01-06T10:26:14;101325.63;;;27.39;44.63
72370;BME280;60343;-32.030;115.880;2024-01-06T10:28:50;101328.94;;;27.36;45.14
72370;BME280;60343;-32.030;115.880;2024-01-06T10:31:26;101323.91;;;27.17;45.87
72370;BME280;60343;-32.030;115.880;2024-01-06T10:34:02;101324.97;;;27.11;46.44
72370;BME280;60343;-32.030;115.880;2024-01-06T10:36:43;101329.34;;;27.02;46.93
72370;BME280;60343;-32.030;115.880;2024-01-06T10:39:20;101324.41;;;26.99;47.38
72370;BME280;60343;-32.030;115.880;2024-01-06T10:41:56;101330.88;;;26.83;48.60
72370;BME280;60343;-32.030;115.880;2024-01-06T10:44:32;101330.84;;;26.78;49.25
72370;BME280;60343;-32.030;115.880;2024-01-06T10:47:09;101325.31;;;26.68;49.67
72370;BME280;60343;-32.030;115.880;2024-01-06T10:49:46;101331.81;;;26.52;50.46
72370;BME280;60343;-32.030;115.880;2024-01-06T10:52:28;101335.03;;;26.38;50.87
72370;BME280;60343;-32.030;115.880;2024-01-06T10:55:05;101340.41;;;26.23;51.44
72370;BME280;60343;-32.030;115.880;2024-01-06T10:57:44;101340.88;;;26.15;51.97
72370;BME280;60343;-32.030;115.880;2024-01-06T11:00:20;101346.81;;;26.07;52.61
72370;BME280;60343;-32.030;115.880;2024-01-06T11:02:56;101340.72;;;25.95;53.08
72370;BME280;60343;-32.030;115.880;2024-01-06T11:05:32;101345.81;;;25.86;53.44
72370;BME280;60343;-32.030;115.880;2024-01-06T11:08:14;101353.13;;;25.76;53.71
72370;BME280;60343;-32.030;115.880;2024-01-06T11:10:52;101357.28;;;25.78;53.67
72370;BME280;60343;-32.030;115.880;2024-01-06T11:13:27;101361.00;;;25.67;53.97
72370;BME280;60343;-32.030;115.880;2024-01-06T11:16:02;101362.81;;;25.56;54.42
72370;BME280;60343;-32.030;115.880;2024-01-06T11:18:39;101361.53;;;25.64;54.52
72370;BME280;60343;-32.030;115.880;2024-01-06T11:21:20;101366.13;;;25.58;54.67
72370;BME280;60343;-32.030;115.880;2024-01-06T11:24:21;101368.63;;;25.60;54.50
72370;BME280;60343;-32.030;115.880;2024-01-06T11:26:58;101373.53;;;25.58;54.53
72370;BME280;60343;-32.030;115.880;2024-01-06T11:29:37;101366.03;;;25.53;54.81
72370;BME280;60343;-32.030;115.880;2024-01-06T11:32:27;101364.34;;;25.47;54.95
72370;BME280;60343;-32.030;115.880;2024-01-06T11:35:10;101372.25;;;25.44;54.88
72370;BME280;60343;-32.030;115.880;2024-01-06T11:37:55;101373.03;;;25.39;55.10
72370;BME280;60343;-32.030;115.880;2024-01-06T11:40:40;101372.19;;;25.39;54.46
72370;BME280;60343;-32.030;115.880;2024-01-06T11:43:15;101376.25;;;25.36;54.75
72370;BME280;60343;-32.030;115.880;2024-01-06T11:45:52;101379.22;;;25.30;54.74
72370;BME280;60343;-32.030;115.880;2024-01-06T11:48:31;101373.34;;;25.21;54.99
72370;BME280;60343;-32.030;115.880;2024-01-06T11:51:09;101369.69;;;25.15;55.11
72370;BME280;60343;-32.030;115.880;2024-01-06T11:53:46;101380.19;;;25.18;54.77
72370;BME280;60343;-32.030;115.880;2024-01-06T11:56:28;101379.16;;;25.03;55.09
72370;BME280;60343;-32.030;115.880;2024-01-06T11:59:03;101385.94;;;25.00;55.27
72370;BME280;60343;-32.030;115.880;2024-01-06T12:01:39;101382.41;;;25.00;54.61
72370;BME280;60343;-32.030;115.880;2024-01-06T12:04:15;101381.72;;;25.09;53.94
72370;BME280;60343;-32.030;115.880;2024-01-06T12:06:53;101382.56;;;25.15;52.74
72370;BME280;60343;-32.030;115.880;2024-01-06T12:09:29;101382.00;;;25.13;52.72
72370;BME280;60343;-32.030;115.880;2024-01-06T12:12:10;101389.66;;;25.11;52.08
72370;BME280;60343;-32.030;115.880;2024-01-06T12:14:45;101390.53;;;25.16;51.64
72370;BME280;60343;-32.030;115.880;2024-01-06T12:17:22;101397.16;;;25.20;51.33
72370;BME280;60343;-32.030;115.880;2024-01-06T12:19:57;101403.56;;;25.04;51.85
72370;BME280;60343;-32.030;115.880;2024-01-06T12:22:32;101396.59;;;24.97;51.81
72370;BME280;60343;-32.030;115.880;2024-01-06T12:25:08;101400.31;;;25.07;51.51
72370;BME280;60343;-32.030;115.880;2024-01-06T12:27:50;101410.25;;;25.13;51.58
72370;BME280;60343;-32.030;115.880;2024-01-06T12:30:26;101408.00;;;25.10;51.50
72370;BME280;60343;-32.030;115.880;2024-01-06T12:33:02;101399.91;;;24.99;51.79
72370;BME280;60343;-32.030;115.880;2024-01-06T12:35:37;101411.19;;;24.86;52.25
72370;BME280;60343;-32.030;115.880;2024-01-06T12:38:13;101413.03;;;24.80;52.49
72370;BME280;60343;-32.030;115.880;2024-01-06T12:40:48;101414.88;;;24.74;52.51
72370;BME280;60343;-32.030;115.880;2024-01-06T12:43:30;101410.03;;;24.82;52.18
72370;BME280;60343;-32.030;115.880;2024-01-06T12:46:05;101416.94;;;24.84;51.98
72370;BME280;60343;-32.030;115.880;2024-01-06T12:48:41;101423.59;;;24.71;52.54
72370;BME280;60343;-32.030;115.880;2024-01-06T12:51:17;101427.09;;;24.67;52.49
72370;BME280;60343;-32.030;115.880;2024-01-06T12:53:54;101423.34;;;24.56;52.90
72370;BME280;60343;-32.030;115.880;2024-01-06T12:56:30;101428.75;;;24.51;52.82
72370;BME280;60343;-32.030;115.880;2024-01-06T12:59:11;101435.22;;;24.45;52.98
72370;BME280;60343;-32.030;115.880;2024-01-06T13:01:46;101429.84;;;24.33;53.07
72370;BME280;60343;-32.030;115.880;2024-01-06T13:04:22;101428.91;;;24.45;52.16
72370;BME280;60343;-32.030;115.880;2024-01-06T13:06:58;101432.06;;;24.53;51.52
72370;BME280;60343;-32.030;115.880;2024-01-06T13:09:33;101426.16;;;24.61;51.06
72370;BME280;60343;-32.030;115.880;2024-01-06T13:12:09;101436.72;;;24.69;50.44
72370;BME280;60343;-32.030;115.880;2024-01-06T13:14:52;101436.63;;;24.64;50.52
72370;BME280;60343;-32.030;115.880;2024-01-06T13:17:30;101442.66;;;24.50;50.45
72370;BME280;60343;-32.030;115.880;2024-01-06T13:20:07;101436.22;;;24.39;50.87
72370;BME280;60343;-32.030;115.880;2024-01-06T13:22:44;101445.84;;;24.42;50.55
72370;BME280;60343;-32.030;115.880;2024-01-06T13:25:19;101441.84;;;24.32;50.23
72370;BME280;60343;-32.030;115.880;2024-01-06T13:27:56;101435.22;;;24.28;50.21
72370;BME280;60343;-32.030;115.880;2024-01-06T13:30:38;101431.56;;;24.23;50.48
72370;BME280;60343;-32.030;115.880;2024-01-06T13:33:14;101443.16;;;24.30;50.07
72370;BME280;60343;-32.030;115.880;2024-01-06T13:35:49;101435.47;;;24.27;50.10
72370;BME280;60343;-32.030;115.880;2024-01-06T13:38:26;101441.72;;;24.11;50.50
72370;BME280;60343;-32.030;115.880;2024-01-06T13:41:02;101447.59;;;24.03;50.49
72370;BME280;60343;-32.030;115.880;2024-01-06T13:43:37;101443.34;;;23.95;50.73
72370;BME280;60343;-32.030;115.880;2024-01-06T13:46:18;101438.03;;;23.88;50.87
72370;BME280;60343;-32.030;115.880;2024-01-06T13:48:53;101434.94;;;23.85;50.85
72370;BME280;60343;-32.030;115.880;2024-01-06T13:51:29;101439.00;;;23.82;50.68
72370;BME280;60343;-32.030;115.880;2024-01-06T13:54:05;101441.25;;;23.85;50.41
72370;BME280;60343;-32.030;115.880;2024-01-06T13:56:40;101437.66;;;23.85;50.25
72370;BME280;60343;-32.030;115.880;2024-01-06T13:59:17;101432.59;;;23.77;50.66
72370;BME280;60343;-32.030;115.880;2024-01-06T14:02:00;101435.38;;;23.65;50.73
72370;BME280;60343;-32.030;115.880;2024-01-06T14:04:35;101428.25;;;23.64;50.76
72370;BME280;60343;-32.030;115.880;2024-01-06T14:07:11;101419.47;;;23.62;50.67
72370;BME280;60343;-32.030;115.880;2024-01-06T14:09:47;101424.25;;;23.55;50.85
72370;BME280;60343;-32.030;115.880;2024-01-06T14:12:22;101422.00;;;23.52;50.31
72370;BME280;60343;-32.030;115.880;2024-01-06T14:14:58;101415.38;;;23.48;50.44
72370;BME280;60343;-32.030;115.880;2024-01-06T14:17:40;101423.06;;;23.39;50.67
72370;BME280;60343;-32.030;115.880;2024-01-06T14:20:17;101418.31;;;23.35;50.60
72370;BME280;60343;-32.030;115.880;2024-01-06T14:22:53;101409.56;;;23.33;50.59
72370;BME280;60343;-32.030;115.880;2024-01-06T14:25:28;101417.66;;;23.28;50.45
72370;BME280;60343;-32.030;115.880;2024-01-06T14:28:03;101415.53;;;23.18;50.82
72370;BME280;60343;-32.030;115.880;2024-01-06T14:30:39;101419.00;;;23.14;51.02
72370;BME280;60343;-32.030;115.880;2024-01-06T14:33:20;101423.41;;;23.03;51.17
72370;BME280;60343;-32.030;115.880;2024-01-06T14:35:56;101422.34;;;22.92;51.42
72370;BME280;60343;-32.030;115.880;2024-01-06T14:38:31;101411.19;;;22.82;51.89
72370;BME280;60343;-32.030;115.880;2024-01-06T14:41:06;101403.47;;;22.79;52.21
72370;BME280;60343;-32.030;115.880;2024-01-06T14:43:42;101400.03;;;22.72;52.15
72370;BME280;60343;-32.030;115.880;2024-01-06T14:46:17;101396.25;;;22.73;52.14
72370;BME280;60343;-32.030;115.880;2024-01-06T14:48:59;101396.81;;;22.75;52.13
72370;BME280;60343;-32.030;115.880;2024-01-06T14:51:34;101391.22;;;22.70;52.27
72370;BME280;60343;-32.030;115.880;2024-01-06T14:54:09;101387.31;;;22.66;52.60
72370;BME280;60343;-32.030;115.880;2024-01-06T14:56:44;101389.09;;;22.60;52.70
72370;BME280;60343;-32.030;115.880;2024-01-06T14:59:21;101390.97;;;22.60;52.68
72370;BME280;60343;-32.030;115.880;2024-01-06T15:01:56;101385.28;;;22.50;53.05
72370;BME280;60343;-32.030;115.880;2024-01-06T15:04:38;101388.38;;;22.42;53.19
72370;BME280;60343;-32.030;115.880;2024-01-06T15:07:13;101381.13;;;22.36;53.42
72370;BME280;60343;-32.030;115.880;2024-01-06T15:09:49;101389.78;;;22.33;54.13
72370;BME280;60343;-32.030;115.880;2024-01-06T15:12:24;101378.28;;;22.31;54.06
72370;BME280;60343;-32.030;115.880;2024-01-06T15:14:59;101379.34;;;22.30;54.23
72370;BME280;60343;-32.030;115.880;2024-01-06T15:17:35;101376.13;;;22.21;54.82
72370;BME280;60343;-32.030;115.880;2024-01-06T15:20:17;101369.72;;;22.15;54.86
72370;BME280;60343;-32.030;115.880;2024-01-06T15:22:52;101372.09;;;22.12;55.21
72370;BME280;60343;-32.030;115.880;2024-01-06T15:25:27;101371.84;;;22.13;55.22
72370;BME280;60343;-32.030;115.880;2024-01-06T15:28:03;101362.94;;;22.06;55.75
72370;BME280;60343;-32.030;115.880;2024-01-06T15:30:38;101358.66;;;21.99;55.76
72370;BME280;60343;-32.030;115.880;2024-01-06T15:33:13;101362.91;;;21.95;55.85
72370;BME280;60343;-32.030;115.880;2024-01-06T15:35:56;101361.34;;;21.87;55.77
72370;BME280;60343;-32.030;115.880;2024-01-06T15:38:32;101350.53;;;21.80;56.42
72370;BME280;60343;-32.030;115.880;2024-01-06T15:41:08;101354.53;;;21.78;57.00
72370;BME280;60343;-32.030;115.880;2024-01-06T15:43:44;101355.63;;;21.77;57.02